Latest Coastal Weather Observations for Cape Naturaliste

IDW60701

Issued at 4:03 pm WST Monday 25 July 2016 (issued every 10 minutes, with the page automatically refreshed every 10 minutes)

About coastal observations | Map of coastal stations | Coastal observations for WA | Marine services | Other Formats
Station Details ID: 009519 Name: CAPE NATURALISTE Lat: -33.54 Lon: 115.02 Height: 109.0 m
Data from the previous 72 hours. | See also: Recent months at Cape Naturaliste
Date/Time
WST
Temp
°C
Wind Pressure Rain since
9am
mm
Weather Cloud Vis
km
Sea
Height
m
Swell
Dir  Spd
kts
Gust
kts
hPa Trend Height
m
Period
s
Dir
25/04:00pm 15.3 WSW 7 9 1026.6 - 0.2 - - - - - - -
25/03:30pm 16.0 WSW 6 8 1026.7 - 0.2 - - - - - - -
25/03:00pm 17.0 W 6 9 1026.4 - 0.2 - - - - - - -
25/02:30pm 16.3 WSW 7 10 1026.3 - 0.2 - - - - - - -
25/02:00pm 16.4 WSW 6 10 1026.2 - 0.2 - - - - - - -
25/01:30pm 16.0 WSW 6 8 1026.5 - 0.2 - - - - - - -
25/01:00pm 15.9 WNW 5 7 1026.8 - 0.2 - - - - - - -
25/12:30pm 14.8 SE 4 8 1027.4 - 0.2 - - - - - - -
25/12:00pm 14.8 ESE 4 6 1027.9 - 0.2 - - - - - - -
25/11:30am 16.1 E 5 8 1028.3 - 0.2 - - - - - - -
25/11:00am 15.2 E 6 8 1028.6 - 0.2 - - - - - - -
25/10:30am 14.4 E 4 6 1028.7 - 0.2 - - - - - - -
25/10:00am 14.4 ESE 4 6 1028.5 - 0.2 - - - - - - -
25/09:30am 12.5 SSW 5 6 1028.2 - 0.0 - - - - - - -
25/09:00am 11.7 S 7 9 1028.0 - 0.8 - - - - - - -
25/08:30am 11.4 SSE 7 10 1028.0 - 0.8 - - - - - - -
25/08:00am 10.7 SSE 6 7 1027.8 - 0.8 - - - - - - -
25/07:30am 10.6 SSE 8 11 1027.4 - 0.8 - - - - - - -
25/07:00am 10.3 S 6 8 1027.0 - 0.8 - - - - - - -
25/06:30am 10.5 SSW 7 13 1026.7 - 0.8 - - - - - - -
25/06:00am 10.2 SSE 8 11 1026.5 - 0.8 - - - - - - -
25/05:30am 10.2 SSE 6 8 1026.3 - 0.8 - - - - - - -
25/05:00am 10.3 S 6 9 1026.1 - 0.8 - - - - - - -
25/04:30am 9.9 SSE 7 8 1026.3 - 0.8 - - - - - - -
25/04:00am 9.9 SSE 7 8 1026.4 - 0.8 - - - - - - -
25/03:30am 10.0 SE 7 7 1026.7 - 0.8 - - - - - - -
25/03:00am 10.3 SSE 7 9 1026.7 - 0.8 - - - - - - -
25/02:30am 10.0 SSE 7 9 1026.7 - 0.8 - - - - - - -
25/02:00am 10.0 SSE 7 9 1026.8 - 0.8 - - - - - - -
25/01:30am 10.3 S 10 14 1026.6 - 0.8 - - - - - - -
25/01:00am 10.6 S 11 16 1026.7 - 0.8 - - - - - - -
25/12:30am 10.6 S 9 11 1026.8 - 0.8 - - - - - - -
25/12:00am 10.5 SW 8 13 1026.7 - 0.8 - - - - - - -
 
Date/Time
WST
Temp
°C
Wind Pressure Rain since
9am
mm
Weather Cloud Vis
km
Sea
Height
m
Swell
Dir  Spd
kts
Gust
kts
hPa Trend Height
m
Period
s
Dir
24/11:30pm 9.9 SSE 6 8 1026.8 - 0.8 - - - - - - -
24/11:00pm 10.0 SE 6 8 1027.0 - 0.8 - - - - - - -
24/10:30pm 10.3 SSE 7 10 1027.1 - 0.8 - - - - - - -
24/10:00pm 10.5 S 9 12 1027.2 - 0.8 - - - - - - -
24/09:30pm 10.5 SSE 8 12 1027.1 - 0.8 - - - - - - -
24/09:00pm 10.5 S 9 12 1027.0 - 0.8 Recent precip. - - - - - -
24/08:30pm 11.3 SSW 9 16 1027.0 - 0.8 - - - - - - -
24/08:00pm 10.4 SSE 8 11 1026.9 - 0.4 - - - - - - -
24/07:30pm 10.6 SSW 9 13 1026.9 - 0.4 - - - - - - -
24/07:00pm 10.9 SSW 12 17 1026.9 - 0.4 - - - - - - -
24/06:30pm 10.4 S 5 7 1026.6 - 0.4 - - - - - - -
24/06:00pm 11.7 SW 11 19 1026.3 - 0.2 - - - - - - -
24/05:30pm 10.8 SSW 7 11 1026.2 - 0.2 - - - - - - -
24/05:00pm 11.9 SW 12 20 1026.1 - 0.2 - - - - - - -
24/04:30pm 12.5 SW 7 10 1026.1 - 0.2 - - - - - - -
24/04:00pm 12.9 WSW 6 9 1026.2 - 0.2 - - - - - - -
24/03:30pm 12.4 SSW 12 17 1026.3 - 0.2 - - - - - - -
24/03:00pm 13.1 WSW 8 11 1026.2 - 0.2 - - - - - - -
24/02:30pm 14.2 SW 8 11 1026.2 - 0.2 - - - - - - -
24/02:00pm 14.5 WSW 9 12 1026.2 - 0.2 - - - - - - -
24/01:30pm 13.1 WSW 7 11 1026.5 - 0.2 - - - - - - -
24/01:00pm 12.1 CALM 0 4 1026.9 - 0.2 - - - - - - -
24/12:30pm 11.9 SSE 4 8 1027.4 - 0.2 - - - - - - -
24/12:00pm 12.2 NNE 4 5 1027.7 - 0.2 Recent precip. - - - - - -
24/11:30am 12.0 NNE 4 6 1028.0 - 0.2 - - - - - - -
24/11:00am 11.6 NNE 4 5 1028.1 - 0.0 - - - - - - -
24/10:30am 11.5 E 4 6 1028.3 - 0.0 - - - - - - -
24/10:00am 11.1 E 5 6 1028.5 - 0.0 - - - - - - -
24/09:30am 10.4 E 5 7 1028.2 - 0.0 - - - - - - -
24/09:00am 9.9 ESE 7 8 1028.1 - 0.0 - - - - - - -
24/08:30am 9.9 E 6 7 1027.9 - 0.0 - - - - - - -
24/08:00am 9.1 ESE 5 6 1027.4 - 0.0 - - - - - - -
24/07:30am 8.7 ESE 6 7 1027.1 - 0.0 - - - - - - -
24/07:00am 8.2 ESE 8 9 1026.8 - 0.0 - - - - - - -
24/06:30am 8.9 E 5 6 1026.5 - 0.0 - - - - - - -
24/06:00am 9.1 SSE 6 8 1026.3 - 0.0 - - - - - - -
24/05:30am 8.8 E 4 5 1026.2 - 0.0 - - - - - - -
24/05:00am 8.2 E 6 7 1026.2 - 0.0 - - - - - - -
24/04:30am 8.5 SSE 5 6 1026.4 - 0.0 - - - - - - -
24/04:00am 9.1 SSW 8 9 1026.2 - 0.0 - - - - - - -
24/03:30am 9.0 S 8 10 1026.4 - 0.0 - - - - - - -
24/03:00am 8.0 SSE 5 7 1026.5 - 0.0 - - - - - - -
24/02:30am 8.0 SSE 8 9 1026.5 - 0.0 - - - - - - -
24/02:00am 7.5 SE 8 8 1026.4 - 0.0 - - - - - - -
24/01:30am 8.2 S 9 11 1026.4 - 0.0 - - - - - - -
24/01:00am 9.0 S 8 11 1026.4 - 0.0 - - - - - - -
24/12:30am 9.4 S 14 19 1026.4 - 0.0 - - - - - - -
24/12:27am 9.2 S 13 19 1026.4 - 0.0 - - - - - - -
24/12:00am 7.7 SSE 8 9 1026.4 - 0.0 - - - - - - -
 
Date/Time
WST
Temp
°C
Wind Pressure Rain since
9am
mm
Weather Cloud Vis
km
Sea
Height
m
Swell
Dir  Spd
kts
Gust
kts
hPa Trend Height
m
Period
s
Dir
23/11:30pm 8.5 SSE 8 10 1026.6 - 0.0 - - - - - - -
23/11:00pm 8.7 SSE 8 9 1026.7 - 0.0 - - - - - - -
23/10:30pm 8.9 SE 8 10 1026.6 - 0.0 - - - - - - -
23/10:00pm 9.1 SSE 8 10 1026.5 - 0.0 - - - - - - -
23/09:30pm 8.7 SSE 9 11 1026.2 - 0.0 - - - - - - -
23/09:00pm 9.3 SSE 10 14 1026.0 - 0.0 - - - - - - -
23/08:30pm 8.3 SSE 11 13 1025.9 - 0.0 - - - - - - -
23/08:00pm 9.3 S 10 14 1025.9 - 0.0 - - - - - - -
23/07:30pm 9.2 S 8 10 1025.8 - 0.0 - - - - - - -
23/07:00pm 9.6 SSE 12 16 1025.3 - 0.0 - - - - - - -
23/06:30pm 9.3 SSE 13 16 1024.8 - 0.0 - - - - - - -
23/06:00pm 9.9 S 11 14 1024.5 - 0.0 - - - - - - -
23/05:30pm 9.5 S 12 15 1024.1 - 0.0 - - - - - - -
23/05:00pm 10.0 S 14 18 1023.7 - 0.0 - - - - - - -
23/04:30pm 10.7 S 13 19 1023.5 - 0.0 - - - - - - -
23/04:00pm 11.5 S 16 23 1023.2 - 0.0 - - - - - - -
23/03:30pm 11.6 S 15 22 1023.1 - 0.0 - - - - - - -
23/03:00pm 12.0 S 17 24 1022.8 - 0.0 - - - - - - -
23/02:30pm 12.7 SSW 18 25 1022.7 - 0.0 - - - - - - -
23/02:00pm 13.0 SSW 20 28 1022.4 - 0.0 - - - - - - -
23/01:30pm 13.5 SSW 21 29 1022.4 - 0.0 - - - - - - -
23/01:14pm 13.4 SSW 21 31 1022.2 - 0.0 - - - - - - -
23/01:00pm 13.9 SSW 22 29 1022.3 - 0.0 - - - - - - -
23/12:30pm 13.3 SSW 22 31 1022.5 - 0.0 - - - - - - -
23/12:16pm 13.3 SSW 21 31 1022.5 - 0.0 - - - - - - -
23/12:00pm 13.2 SSW 23 32 1022.5 - 0.0 - - - - - - -
23/11:38am 13.6 SSW 22 32 1022.6 - 0.0 - - - - - - -
23/11:30am 12.9 SSW 22 30 1022.6 - 0.0 - - - - - - -
23/11:09am 12.7 SSW 22 34 1022.5 - 0.0 - - - - - - -
23/11:00am 12.3 SSW 22 29 1022.5 - 0.0 - - - - - - -
23/10:52am 12.2 SSW 18 28 1022.5 - 0.0 - - - - - - -
23/10:30am 11.6 S 23 31 1022.4 - 0.0 - - - - - - -
23/10:00am 11.5 SSW 23 33 1022.2 - 0.0 - - - - - - -
23/09:48am 12.1 SW 23 32 1021.6 - 0.0 - - - - - - -
23/09:30am 14.4 SW 21 27 1021.5 - 0.0 - - - - - - -
23/09:01am 12.4 WSW 16 26 1021.4 - 0.0 - - - - - - -
23/09:00am 12.6 WSW 16 21 1021.4 - 2.4 Recent precip. - - - - - -
23/08:30am 12.6 WSW 20 30 1021.5 - 2.2 - - - - - - -
23/08:27am 12.4 WSW 19 30 1021.5 - 2.2 - - - - - - -
23/08:00am 12.1 WSW 19 27 1021.5 - 2.2 - - - - - - -
23/07:45am 12.1 WSW 17 27 1021.3 - 2.2 - - - - - - -
23/07:30am 11.1 WSW 16 22 1021.4 - 2.2 - - - - - - -
23/07:00am 10.5 WSW 21 28 1021.3 - 2.2 - - - - - - -
23/06:30am 10.3 W 20 27 1021.4 - 2.2 - - - - - - -
23/06:12am 10.6 WSW 19 29 1021.5 - 1.8 - - - - - - -
23/06:00am 11.0 W 20 26 1021.4 - 1.6 Recent precip. - - - - - -
23/05:30am 12.1 W 17 27 1021.4 - 1.2 - - - - - - -
23/05:00am 11.3 WSW 15 21 1021.6 - 1.2 - - - - - - -
23/04:30am 10.9 WSW 15 19 1021.7 - 1.2 - - - - - - -
23/04:09am 11.3 WSW 15 25 1021.8 - 1.2 - - - - - - -
23/04:00am 10.7 W 17 23 1021.9 - 1.2 - - - - - - -
23/03:30am 10.3 WSW 14 18 1022.2 - 1.2 - - - - - - -
23/03:00am 10.4 W 17 25 1022.2 - 1.2 Recent precip. - - - - - -
23/02:59am 10.3 W 16 25 1022.2 - 1.2 - - - - - - -
23/02:30am 9.2 WSW 11 15 1022.4 - 1.2 - - - - - - -
23/02:00am 9.4 SW 7 9 1022.7 - 1.0 - - - - - - -
23/01:30am 10.0 SW 12 16 1022.9 - 1.0 - - - - - - -
23/01:00am 10.3 WSW 12 17 1023.1 - 0.8 - - - - - - -
23/12:30am 10.2 WSW 8 11 1022.9 - 0.2 - - - - - - -
23/12:00am 9.9 WSW 9 11 1023.0 - 0.2 - - - - - - -
 
Date/Time
WST
Temp
°C
Wind Pressure Rain since
9am
mm
Weather Cloud Vis
km
Sea
Height
m
Swell
Dir  Spd
kts
Gust
kts
hPa Trend Height
m
Period
s
Dir
22/11:30pm 10.2 SW 10 14 1023.1 - 0.2 - - - - - - -
22/11:00pm 9.8 SW 6 10 1023.3 - 0.2 - - - - - - -
22/10:30pm 8.7 S 6 8 1023.4 - 0.2 - - - - - - -
22/10:00pm 9.2 SSW 6 9 1023.7 - 0.2 - - - - - - -
22/09:30pm 9.3 SE 6 7 1023.7 - 0.0 - - - - - - -
22/09:00pm 9.5 S 5 7 1023.7 - 0.0 - - - - - - -
22/08:30pm 9.7 S 9 10 1023.9 - 0.0 - - - - - - -
22/08:00pm 9.6 SSE 7 8 1023.7 - 0.0 - - - - - - -
22/07:30pm 9.6 SSE 8 9 1023.6 - 0.0 - - - - - - -
22/07:00pm 9.6 SSE 8 9 1023.5 - 0.0 - - - - - - -
22/06:30pm 10.0 SSE 8 10 1023.2 - 0.0 - - - - - - -
22/06:00pm 10.2 SSE 9 10 1023.2 - 0.0 - - - - - - -
22/05:30pm 10.5 SSE 9 11 1023.1 - 0.0 - - - - - - -
22/05:00pm 11.2 S 8 11 1023.1 - 0.0 - - - - - - -
22/04:30pm 11.8 SSW 6 8 1023.1 - 0.0 - - - - - - -

Other Formats:

Comma delimited format used in spreadsheet applications
http://www.bom.gov.au/fwo/IDW60701/IDW60701.94600.axf

JavaScript Object Notation format (JSON) in row-major order
http://www.bom.gov.au/fwo/IDW60701/IDW60701.94600.json